createdAt,value
2018-08-13T00:01:53.698Z,42.35
2018-08-13T00:04:23.407Z,41.85
2018-08-13T00:06:53.220Z,41.29
2018-08-13T00:09:28.060Z,41.93
2018-08-13T00:11:57.815Z,42.96
2018-08-13T00:14:27.601Z,42.61
2018-08-13T00:16:57.371Z,42.10
2018-08-13T00:19:27.084Z,42.89
2018-08-13T00:21:56.831Z,41.89
2018-08-13T00:24:26.675Z,43.63
2018-08-13T00:26:56.404Z,42.44
2018-08-13T00:29:26.589Z,42.13
2018-08-13T00:31:56.291Z,41.66
2018-08-13T00:34:26.429Z,42.03
2018-08-13T00:36:56.191Z,41.99
2018-08-13T00:39:25.907Z,43.08
2018-08-13T00:41:55.656Z,44.00
2018-08-13T00:44:25.395Z,43.52
2018-08-13T00:46:55.502Z,43.71
2018-08-13T00:49:25.234Z,43.55
2018-08-13T00:51:54.935Z,42.79
2018-08-13T00:54:24.707Z,43.50
2018-08-13T00:56:54.715Z,43.45
2018-08-13T00:59:24.461Z,43.82
2018-08-13T01:01:54.226Z,43.95
2018-08-13T01:04:23.936Z,42.98
2018-08-13T01:06:53.720Z,43.27
2018-08-13T01:09:23.489Z,42.98
2018-08-13T01:11:53.157Z,43.64
2018-08-13T01:14:23.180Z,42.93
2018-08-13T01:16:52.895Z,42.01
2018-08-13T01:19:22.767Z,42.71
2018-08-13T01:21:52.581Z,42.30
2018-08-13T01:24:22.343Z,43.30
2018-08-13T01:26:52.216Z,42.19
2018-08-13T01:29:21.929Z,42.91
2018-08-13T01:31:51.648Z,42.25
2018-08-13T01:34:21.710Z,42.31
2018-08-13T01:36:51.440Z,43.88
2018-08-13T01:39:21.183Z,42.93
2018-08-13T01:41:50.898Z,43.45
2018-08-13T01:44:20.539Z,43.12
2018-08-13T01:46:50.251Z,43.77
2018-08-13T01:49:20.012Z,43.77
2018-08-13T01:51:50.219Z,43.54
2018-08-13T01:54:20.016Z,44.92
2018-08-13T01:56:49.737Z,44.08
2018-08-13T01:59:19.460Z,44.39
2018-08-13T02:01:49.325Z,44.84
2018-08-13T02:04:18.983Z,44.76
2018-08-13T02:06:49.111Z,44.93
2018-08-13T02:09:18.862Z,44.86
2018-08-13T02:11:48.701Z,46.31
2018-08-13T02:14:18.497Z,45.80
2018-08-13T02:16:48.192Z,46.15
2018-08-13T02:19:17.933Z,46.43
2018-08-13T02:21:47.806Z,47.09
2018-08-13T02:24:17.508Z,46.79
2018-08-13T02:26:47.280Z,47.75
2018-08-13T02:29:17.347Z,47.57
2018-08-13T02:31:47.413Z,47.23
2018-08-13T02:34:17.237Z,47.72
2018-08-13T02:36:47.029Z,47.64
2018-08-13T02:39:16.869Z,47.52
2018-08-13T02:41:46.591Z,48.29
2018-08-13T02:44:16.383Z,47.47
2018-08-13T02:46:46.099Z,46.60
2018-08-13T02:49:15.755Z,46.11
2018-08-13T02:51:45.614Z,46.69
2018-08-13T02:54:15.426Z,47.26
2018-08-13T02:56:45.216Z,45.63
2018-08-13T02:59:14.977Z,45.92
2018-08-13T03:01:44.757Z,47.12
2018-08-13T03:04:14.536Z,45.58
2018-08-13T03:06:44.304Z,44.70
2018-08-13T03:09:14.096Z,44.69
2018-08-13T03:11:43.828Z,45.20
2018-08-13T03:14:13.632Z,45.78
2018-08-13T03:16:43.444Z,45.80
2018-08-13T03:19:13.205Z,46.21
2018-08-13T03:21:42.908Z,46.41
2018-08-13T03:24:12.697Z,46.74
2018-08-13T03:26:42.452Z,46.55
2018-08-13T03:29:12.283Z,47.39
2018-08-13T03:31:42.033Z,47.41
2018-08-13T03:34:11.698Z,46.74
2018-08-13T03:36:41.423Z,47.42
2018-08-13T03:39:13.112Z,46.88
2018-08-13T03:41:43.889Z,46.68
2018-08-13T03:44:13.683Z,47.13
2018-08-13T03:46:43.451Z,47.13
2018-08-13T03:49:13.181Z,47.76
2018-08-13T03:51:43.145Z,47.38
2018-08-13T03:54:12.830Z,47.68
2018-08-13T03:56:42.532Z,48.36
2018-08-13T03:59:12.701Z,46.39
2018-08-13T04:01:42.372Z,46.91
2018-08-13T04:04:12.110Z,46.42
2018-08-13T04:06:41.856Z,47.24
2018-08-13T04:09:11.636Z,46.79
2018-08-13T04:11:41.383Z,47.03
2018-08-13T04:14:11.103Z,47.93
2018-08-13T04:16:40.796Z,47.46
2018-08-13T04:19:10.572Z,47.49
2018-08-13T04:21:40.273Z,46.81
2018-08-13T04:24:09.996Z,47.69
2018-08-13T04:26:39.755Z,46.94
2018-08-13T04:29:09.458Z,47.14
2018-08-13T04:31:39.242Z,46.87
2018-08-13T04:34:08.994Z,47.13
2018-08-13T04:36:38.741Z,46.16
2018-08-13T04:39:11.099Z,46.89
2018-08-13T04:41:41.200Z,46.94
2018-08-13T04:44:11.100Z,47.78
2018-08-13T04:46:40.837Z,45.98
2018-08-13T04:49:10.579Z,47.62
2018-08-13T04:51:40.308Z,47.09
2018-08-13T04:54:10.108Z,45.96
2018-08-13T04:56:40.160Z,45.03
2018-08-13T04:59:09.873Z,44.67
2018-08-13T05:01:39.628Z,45.20
2018-08-13T05:04:09.413Z,45.45
2018-08-13T05:06:39.151Z,45.11
2018-08-13T05:09:10.415Z,44.77
2018-08-13T05:11:40.908Z,45.08
2018-08-13T05:14:10.720Z,45.53
2018-08-13T05:16:40.495Z,45.09
2018-08-13T05:19:10.282Z,44.77
2018-08-13T05:21:40.012Z,45.05
2018-08-13T05:24:09.716Z,45.11
2018-08-13T05:26:39.423Z,45.24
2018-08-13T05:29:09.071Z,44.24
2018-08-13T05:31:38.748Z,44.31
2018-08-13T05:34:08.440Z,44.46
2018-08-13T05:36:38.111Z,43.94
2018-08-13T05:39:10.336Z,43.57
2018-08-13T05:41:40.073Z,43.48
2018-08-13T05:44:09.835Z,42.84
2018-08-13T05:46:39.655Z,43.64
2018-08-13T05:49:09.355Z,43.11
2018-08-13T05:51:39.116Z,42.87
2018-08-13T05:54:08.932Z,43.07
2018-08-13T05:56:38.607Z,43.77
2018-08-13T05:59:08.437Z,43.45
2018-08-13T06:01:38.624Z,43.38
2018-08-13T06:04:08.424Z,43.07
2018-08-13T06:06:38.155Z,43.26
2018-08-13T06:09:10.903Z,44.05
2018-08-13T06:11:40.765Z,44.20
2018-08-13T06:14:10.607Z,44.02
2018-08-13T06:16:40.375Z,42.57
2018-08-13T06:19:10.140Z,43.22
2018-08-13T06:21:39.869Z,43.81
2018-08-13T06:24:09.661Z,44.66
2018-08-13T06:26:39.428Z,44.73
2018-08-13T06:29:09.500Z,45.04
2018-08-13T06:31:39.237Z,44.73
2018-08-13T06:34:09.370Z,45.53
2018-08-13T06:36:39.099Z,45.48
2018-08-13T06:39:10.231Z,44.46
2018-08-13T06:41:40.016Z,44.83
2018-08-13T06:44:09.748Z,44.88
2018-08-13T06:46:39.554Z,43.45
2018-08-13T06:49:09.623Z,43.35
2018-08-13T06:51:39.359Z,42.64
2018-08-13T06:54:09.139Z,43.74
2018-08-13T06:56:38.924Z,43.44
2018-08-13T06:59:08.668Z,42.51
2018-08-13T07:01:38.415Z,43.56
2018-08-13T07:04:08.200Z,43.75
2018-08-13T07:06:37.940Z,44.03
2018-08-13T07:09:10.236Z,43.51
2018-08-13T07:11:40.092Z,43.58
2018-08-13T07:14:09.909Z,43.20
2018-08-13T07:16:39.729Z,42.83
2018-08-13T07:19:09.513Z,42.83
2018-08-13T07:21:39.365Z,42.91
2018-08-13T07:24:15.280Z,42.19
2018-08-13T07:26:45.061Z,41.59
2018-08-13T07:29:14.837Z,42.18
2018-08-13T07:31:44.634Z,41.51
2018-08-13T07:34:14.452Z,41.83
2018-08-13T07:36:44.535Z,41.24
2018-08-13T07:39:14.447Z,39.40
2018-08-13T07:41:44.131Z,38.34
2018-08-13T07:44:13.860Z,39.07
2018-08-13T07:46:43.984Z,38.89
2018-08-13T07:49:13.702Z,36.71
2018-08-13T07:51:43.508Z,36.63
2018-08-13T07:54:13.470Z,36.31
2018-08-13T07:56:43.225Z,34.86
2018-08-13T07:59:12.990Z,34.77
2018-08-13T08:01:42.715Z,35.49
2018-08-13T08:04:12.562Z,35.45
2018-08-13T08:06:42.368Z,35.27
2018-08-13T08:09:13.455Z,35.73
2018-08-13T08:11:43.200Z,34.82
2018-08-13T08:14:12.963Z,35.27
2018-08-13T08:16:42.705Z,34.34
2018-08-13T08:19:12.468Z,34.87
2018-08-13T08:21:42.227Z,34.68
2018-08-13T08:24:12.017Z,34.72
2018-08-13T08:26:41.788Z,36.11
2018-08-13T08:29:11.587Z,36.64
2018-08-13T08:31:41.358Z,36.39
2018-08-13T08:34:11.729Z,35.69
2018-08-13T08:36:41.459Z,35.88
2018-08-13T08:39:16.160Z,36.19
2018-08-13T08:41:45.905Z,36.57
2018-08-13T08:44:15.919Z,36.78
2018-08-13T08:46:45.705Z,37.39
2018-08-13T08:49:15.481Z,37.11
2018-08-13T08:51:45.330Z,36.48
2018-08-13T08:54:15.136Z,36.22
2018-08-13T08:56:44.890Z,36.95
2018-08-13T08:59:14.631Z,37.92
2018-08-13T09:01:44.367Z,36.30
2018-08-13T09:04:14.223Z,36.66
2018-08-13T09:06:44.412Z,36.17
2018-08-13T09:09:14.522Z,37.37
2018-08-13T09:11:44.266Z,36.05
2018-08-13T09:14:14.410Z,36.47
2018-08-13T09:16:47.331Z,37.06
2018-08-13T09:19:28.286Z,36.82
2018-08-13T09:22:09.716Z,37.89
2018-08-13T09:24:50.580Z,39.09
2018-08-13T09:27:31.347Z,38.72
2018-08-13T09:30:12.032Z,39.75
2018-08-13T09:32:52.758Z,39.53
2018-08-13T09:35:29.660Z,39.73
2018-08-13T09:37:59.420Z,41.10
2018-08-13T09:40:30.280Z,42.59
2018-08-13T09:43:00.189Z,42.35
2018-08-13T09:45:29.884Z,42.56
2018-08-13T09:47:59.649Z,41.75
2018-08-13T09:50:29.640Z,43.61
2018-08-13T09:52:59.412Z,44.52
2018-08-13T09:55:29.173Z,46.31
2018-08-13T09:57:58.961Z,47.44
2018-08-13T10:00:33.686Z,47.21
2018-08-13T10:03:03.521Z,49.55
2018-08-13T10:05:33.257Z,47.70
2018-08-13T10:08:03.004Z,48.37
2018-08-13T10:10:32.720Z,47.31
2018-08-13T10:13:02.465Z,47.30
2018-08-13T10:15:32.263Z,47.45
2018-08-13T10:18:02.118Z,47.74
2018-08-13T10:20:31.855Z,47.81
2018-08-13T10:23:01.649Z,47.44
2018-08-13T10:25:31.452Z,49.06
2018-08-13T10:28:01.207Z,50.99
2018-08-13T10:30:30.888Z,51.44
2018-08-13T10:33:00.689Z,53.30
2018-08-13T10:35:30.430Z,55.63
2018-08-13T10:38:00.188Z,57.51
2018-08-13T10:40:29.907Z,55.36
2018-08-13T10:42:59.670Z,57.89
2018-08-13T10:45:29.407Z,57.30
2018-08-13T10:47:59.092Z,56.52
2018-08-13T10:50:28.807Z,55.71
2018-08-13T10:52:58.594Z,56.96
2018-08-13T10:55:28.636Z,57.90
2018-08-13T10:57:58.427Z,57.06
2018-08-13T11:00:28.184Z,57.05
2018-08-13T11:02:57.986Z,57.52
2018-08-13T11:05:27.667Z,56.97
2018-08-13T11:07:57.397Z,57.56
2018-08-13T11:10:27.212Z,57.19
2018-08-13T11:12:57.016Z,56.81
2018-08-13T11:15:26.759Z,57.20
2018-08-13T11:17:56.909Z,56.61
2018-08-13T11:20:26.987Z,54.51
2018-08-13T11:22:56.813Z,54.48
2018-08-13T11:25:26.884Z,53.48
2018-08-13T11:27:56.724Z,55.20
2018-08-13T11:30:26.442Z,55.72
2018-08-13T11:32:56.200Z,55.55
2018-08-13T11:35:25.885Z,54.35
2018-08-13T11:37:55.599Z,53.43
2018-08-13T11:40:25.368Z,53.35
2018-08-13T11:42:55.081Z,54.04
2018-08-13T11:45:24.790Z,53.99
2018-08-13T11:47:54.508Z,54.20
2018-08-13T11:50:24.232Z,54.14
2018-08-13T11:52:53.937Z,55.28
2018-08-13T11:55:23.727Z,57.53
2018-08-13T11:57:53.423Z,58.39
2018-08-13T12:00:23.171Z,59.14
2018-08-13T12:02:53.387Z,58.94
2018-08-13T12:05:23.112Z,60.46
2018-08-13T12:07:52.852Z,61.30
2018-08-13T12:10:22.571Z,61.28
2018-08-13T12:12:52.296Z,61.19
2018-08-13T12:15:22.044Z,62.00
2018-08-13T12:17:51.792Z,62.10
2018-08-13T12:20:22.158Z,63.84
2018-08-13T12:22:51.856Z,61.79
2018-08-13T12:25:24.747Z,63.85
2018-08-13T12:27:54.939Z,64.58
2018-08-13T12:30:24.797Z,65.24
2018-08-13T12:32:54.914Z,64.36
2018-08-13T12:35:24.656Z,64.97
2018-08-13T12:37:54.371Z,65.41
2018-08-13T12:40:24.212Z,66.61
2018-08-13T12:42:53.949Z,64.99
2018-08-13T12:45:23.647Z,67.58
2018-08-13T12:47:53.352Z,67.35
2018-08-13T12:50:23.120Z,67.23
2018-08-13T12:52:53.355Z,66.82
2018-08-13T12:55:23.115Z,66.92
2018-08-13T12:57:52.840Z,67.39
2018-08-13T13:00:22.568Z,68.34
2018-08-13T13:02:52.290Z,67.98
2018-08-13T13:05:22.050Z,67.41
2018-08-13T13:07:51.803Z,67.32
2018-08-13T13:10:21.587Z,67.20
2018-08-13T13:12:51.368Z,66.19
2018-08-13T13:15:21.538Z,66.99
2018-08-13T13:17:51.393Z,67.66
2018-08-13T13:20:23.347Z,65.86
2018-08-13T13:22:53.211Z,64.77
2018-08-13T13:25:22.999Z,64.79
2018-08-13T13:27:52.712Z,65.92
2018-08-13T13:30:22.448Z,62.91
2018-08-13T13:32:52.165Z,63.38
2018-08-13T13:35:21.843Z,62.53
2018-08-13T13:37:51.541Z,61.65
2018-08-13T13:40:21.278Z,61.63
2018-08-13T13:42:50.981Z,61.88
2018-08-13T13:45:20.708Z,60.97
2018-08-13T13:47:50.431Z,59.60
2018-08-13T13:50:20.538Z,58.41
2018-08-13T13:52:50.224Z,58.09
2018-08-13T13:55:19.965Z,59.68
2018-08-13T13:57:49.704Z,59.82
2018-08-13T14:00:21.752Z,60.08
2018-08-13T14:02:52.367Z,59.58
2018-08-13T14:05:22.149Z,59.29
2018-08-13T14:07:51.937Z,59.72
2018-08-13T14:10:22.865Z,58.94
2018-08-13T14:12:52.640Z,58.36
2018-08-13T14:15:23.323Z,59.37
2018-08-13T14:17:53.216Z,56.11
2018-08-13T14:20:23.060Z,56.52
2018-08-13T14:22:52.799Z,53.65
2018-08-13T14:25:22.572Z,53.13
2018-08-13T14:27:52.329Z,53.04
2018-08-13T14:30:24.812Z,53.45
2018-08-13T14:32:54.676Z,54.27
2018-08-13T14:35:25.381Z,53.68
2018-08-13T14:37:55.168Z,54.84
2018-08-13T14:40:24.946Z,54.06
2018-08-13T14:42:54.634Z,54.59
2018-08-13T14:45:24.413Z,54.13
2018-08-13T14:47:54.144Z,54.69
2018-08-13T14:50:23.880Z,55.04
2018-08-13T14:52:53.722Z,56.11
2018-08-13T14:55:23.727Z,56.85
2018-08-13T14:57:53.479Z,57.28
2018-08-13T15:00:25.682Z,57.90
2018-08-13T15:02:56.248Z,56.86
2018-08-13T15:05:26.064Z,55.79
2018-08-13T15:07:55.795Z,56.00
2018-08-13T15:10:26.827Z,56.92
2018-08-13T15:12:56.800Z,56.43
2018-08-13T15:15:26.542Z,57.31
2018-08-13T15:17:56.320Z,56.68
2018-08-13T15:20:28.978Z,56.58
2018-08-13T15:22:58.719Z,56.95
2018-08-13T15:25:29.564Z,56.99
2018-08-13T15:27:59.412Z,57.48
2018-08-13T15:30:29.298Z,57.37
2018-08-13T15:32:58.991Z,57.54
2018-08-13T15:35:28.714Z,57.61
2018-08-13T15:37:58.503Z,58.08
2018-08-13T15:40:28.561Z,57.21
2018-08-13T15:42:58.336Z,57.04
2018-08-13T15:45:28.106Z,58.93
2018-08-13T15:47:57.908Z,58.30
2018-08-13T15:50:27.603Z,57.84
2018-08-13T15:52:57.316Z,58.57
2018-08-13T15:55:27.135Z,58.74
2018-08-13T15:57:56.883Z,58.14
2018-08-13T16:00:27.731Z,58.55
2018-08-13T16:02:57.558Z,57.64
2018-08-13T16:05:27.370Z,57.73
2018-08-13T16:07:57.183Z,58.69
2018-08-13T16:10:26.884Z,57.62
2018-08-13T16:12:56.700Z,57.46
2018-08-13T16:15:26.464Z,57.36
2018-08-13T16:17:56.236Z,57.86
2018-08-13T16:20:26.021Z,57.29
2018-08-13T16:22:55.747Z,56.95
2018-08-13T16:25:25.938Z,56.74
2018-08-13T16:27:55.765Z,56.96
2018-08-13T16:30:28.056Z,56.55
2018-08-13T16:32:57.841Z,57.50
2018-08-13T16:35:27.608Z,56.99
2018-08-13T16:37:57.420Z,58.27
2018-08-13T16:40:27.202Z,57.77
2018-08-13T16:42:56.897Z,58.19
2018-08-13T16:45:26.648Z,59.07
2018-08-13T16:47:56.439Z,58.65
2018-08-13T16:50:30.911Z,58.67
2018-08-13T16:53:01.279Z,58.57
2018-08-13T16:55:32.514Z,58.78
2018-08-13T16:58:03.089Z,58.21
2018-08-13T17:00:33.345Z,58.19
2018-08-13T17:03:03.117Z,58.43
2018-08-13T17:05:35.121Z,58.66
2018-08-13T17:08:05.072Z,59.14
2018-08-13T17:10:34.932Z,57.66
2018-08-13T17:13:04.841Z,57.06
2018-08-13T17:15:34.653Z,58.09
2018-08-13T17:18:04.556Z,57.99
2018-08-13T17:20:38.428Z,57.13
2018-08-13T17:23:08.356Z,57.48
2018-08-13T17:25:41.005Z,57.67
2018-08-13T17:28:10.815Z,57.73
2018-08-13T17:30:41.114Z,58.86
2018-08-13T17:33:10.932Z,58.59
2018-08-13T17:35:40.835Z,60.03
2018-08-13T17:38:11.571Z,58.62
2018-08-13T17:40:41.437Z,59.08
2018-08-13T17:43:12.092Z,58.13
2018-08-13T17:45:41.767Z,58.54
2018-08-13T17:48:11.895Z,58.70
2018-08-13T17:50:42.392Z,59.28
2018-08-13T17:53:12.299Z,59.54
2018-08-13T17:55:42.446Z,59.05
2018-08-13T17:58:12.593Z,59.65
2018-08-13T18:00:42.380Z,60.11
2018-08-13T18:03:12.112Z,60.75
2018-08-13T18:05:41.916Z,60.06
2018-08-13T18:08:11.676Z,60.02
2018-08-13T18:10:41.386Z,61.17
2018-08-13T18:13:11.188Z,60.92
2018-08-13T18:15:40.926Z,60.97
2018-08-13T18:18:10.719Z,62.19
2018-08-13T18:20:40.448Z,60.80
2018-08-13T18:23:10.229Z,60.22
2018-08-13T18:25:39.923Z,60.89
2018-08-13T18:28:09.774Z,60.32
2018-08-13T18:30:39.860Z,59.96
2018-08-13T18:33:09.676Z,61.16
2018-08-13T18:35:39.512Z,61.86
2018-08-13T18:38:09.320Z,61.42
2018-08-13T18:40:39.001Z,62.42
2018-08-13T18:43:08.888Z,61.81
2018-08-13T18:45:39.042Z,62.52
2018-08-13T18:48:08.921Z,62.96
2018-08-13T18:50:38.661Z,63.28
2018-08-13T18:53:08.575Z,62.87
2018-08-13T18:55:38.319Z,64.42
2018-08-13T18:58:08.174Z,64.56
2018-08-13T19:00:37.910Z,64.20
2018-08-13T19:03:07.675Z,64.75
2018-08-13T19:05:37.548Z,64.36
2018-08-13T19:08:07.429Z,64.20
2018-08-13T19:10:37.217Z,65.72
2018-08-13T19:13:07.000Z,65.50
2018-08-13T19:15:37.080Z,65.20
2018-08-13T19:18:06.824Z,65.61
2018-08-13T19:20:36.492Z,65.81
2018-08-13T19:23:06.344Z,66.81
2018-08-13T19:25:36.132Z,66.75
2018-08-13T19:28:06.088Z,67.48
2018-08-13T19:30:35.899Z,66.92
2018-08-13T19:33:05.754Z,66.81
2018-08-13T19:35:35.572Z,68.04
2018-08-13T19:38:05.292Z,66.78
2018-08-13T19:40:35.053Z,67.75
2018-08-13T19:43:05.809Z,67.29
2018-08-13T19:45:35.564Z,67.83
2018-08-13T19:48:05.508Z,67.91
2018-08-13T19:50:35.255Z,68.50
2018-08-13T19:53:05.005Z,69.29
2018-08-13T19:55:34.737Z,68.55
2018-08-13T19:58:04.552Z,69.30
2018-08-13T20:00:34.239Z,68.91
2018-08-13T20:03:03.952Z,69.44
2018-08-13T20:05:33.653Z,69.27
2018-08-13T20:08:03.334Z,69.87
2018-08-13T20:10:33.163Z,69.89
2018-08-13T20:13:02.861Z,69.70
2018-08-13T20:15:32.530Z,70.18
2018-08-13T20:18:02.307Z,69.91
2018-08-13T20:20:32.068Z,70.24
2018-08-13T20:23:01.813Z,69.66
2018-08-13T20:25:31.539Z,70.06
2018-08-13T20:28:01.255Z,70.01
2018-08-13T20:30:30.991Z,69.31
2018-08-13T20:33:00.960Z,69.58
2018-08-13T20:35:30.648Z,69.15
2018-08-13T20:38:00.427Z,69.26
2018-08-13T20:40:30.140Z,69.00
2018-08-13T20:42:59.872Z,70.24
2018-08-13T20:45:29.608Z,69.26
2018-08-13T20:47:59.295Z,68.76
2018-08-13T20:50:29.072Z,68.64
2018-08-13T20:52:58.782Z,68.66
2018-08-13T20:55:29.680Z,68.68
2018-08-13T20:57:59.411Z,68.37
2018-08-13T21:00:30.699Z,68.78
2018-08-13T21:03:00.393Z,68.93
2018-08-13T21:05:30.144Z,69.04
2018-08-13T21:07:59.879Z,69.39
2018-08-13T21:10:29.606Z,69.22
2018-08-13T21:13:00.244Z,69.08
2018-08-13T21:15:30.428Z,68.25
2018-08-13T21:18:00.169Z,69.39
2018-08-13T21:20:30.195Z,69.95
2018-08-13T21:22:59.944Z,69.83
2018-08-13T21:25:30.045Z,69.64
2018-08-13T21:27:59.720Z,69.56
2018-08-13T21:30:29.448Z,69.75
2018-08-13T21:32:59.377Z,69.73
2018-08-13T21:35:29.199Z,70.41
2018-08-13T21:37:58.891Z,70.74
2018-08-13T21:40:28.664Z,70.96
2018-08-13T21:42:58.356Z,70.52
2018-08-13T21:45:28.077Z,69.55
2018-08-13T21:47:57.727Z,70.87
2018-08-13T21:50:27.468Z,69.97
2018-08-13T21:52:57.230Z,71.17
2018-08-13T21:55:26.983Z,70.90
2018-08-13T21:57:56.751Z,71.43
2018-08-13T22:00:28.816Z,71.04
2018-08-13T22:03:01.377Z,71.69
2018-08-13T22:05:31.227Z,71.83
2018-08-13T22:08:00.988Z,72.15
2018-08-13T22:10:30.784Z,71.85
2018-08-13T22:13:00.505Z,71.18
2018-08-13T22:15:32.404Z,71.96
2018-08-13T22:18:04.656Z,72.05
2018-08-13T22:20:35.632Z,71.63
2018-08-13T22:23:07.293Z,72.55
2018-08-13T22:25:40.779Z,71.93
2018-08-13T22:28:11.355Z,71.75
2018-08-13T22:30:41.140Z,71.15
2018-08-13T22:33:12.043Z,72.07
2018-08-13T22:35:41.907Z,73.32
2018-08-13T22:38:11.720Z,72.86
2018-08-13T22:40:41.730Z,72.29
2018-08-13T22:43:11.457Z,72.64
2018-08-13T22:45:41.216Z,73.53
2018-08-13T22:48:10.939Z,72.73
2018-08-13T22:50:40.623Z,72.29
2018-08-13T22:53:10.315Z,73.39
2018-08-13T22:55:40.060Z,73.86
2018-08-13T22:58:09.777Z,73.00
2018-08-13T23:00:39.541Z,73.43
2018-08-13T23:03:09.240Z,73.58
2018-08-13T23:05:38.980Z,74.00
2018-08-13T23:08:08.813Z,73.88
2018-08-13T23:10:38.497Z,73.94
2018-08-13T23:13:14.613Z,74.27
2018-08-13T23:15:44.368Z,73.36
2018-08-13T23:18:14.184Z,74.34
2018-08-13T23:20:43.920Z,73.17
2018-08-13T23:23:13.632Z,73.15
2018-08-13T23:25:43.276Z,74.44
2018-08-13T23:28:13.053Z,74.73
2018-08-13T23:30:42.727Z,74.14
2018-08-13T23:33:12.396Z,74.10
2018-08-13T23:35:42.216Z,74.39
2018-08-13T23:38:11.945Z,74.74
2018-08-13T23:40:41.631Z,74.83
2018-08-13T23:43:11.326Z,74.98
2018-08-13T23:45:41.004Z,74.93
2018-08-13T23:48:10.720Z,74.02
2018-08-13T23:50:40.528Z,73.90
2018-08-13T23:53:10.336Z,73.54
2018-08-13T23:55:40.807Z,74.15
2018-08-13T23:58:12.765Z,74.50
